createdAt,value
2023-05-07T00:02:20.987Z,11.60
2023-05-07T00:04:51.348Z,11.50
2023-05-07T00:07:19.338Z,11.60
2023-05-07T00:09:47.361Z,11.40
2023-05-07T00:12:15.333Z,11.50
2023-05-07T00:14:43.310Z,11.40
2023-05-07T00:17:11.284Z,11.40
2023-05-07T00:19:39.283Z,11.40
2023-05-07T00:22:09.220Z,11.50
2023-05-07T00:24:46.890Z,11.50
2023-05-07T00:27:24.442Z,11.60
2023-05-07T00:29:56.046Z,11.60
2023-05-07T00:32:24.132Z,11.60
2023-05-07T00:34:52.246Z,11.50
2023-05-07T00:37:21.719Z,11.40
2023-05-07T00:39:49.711Z,11.40
2023-05-07T00:42:17.935Z,11.50
2023-05-07T00:44:45.893Z,11.50
2023-05-07T00:47:14.117Z,11.50
2023-05-07T00:49:45.010Z,11.50
2023-05-07T00:52:17.655Z,11.50
2023-05-07T00:54:47.212Z,11.50
2023-05-07T00:57:16.894Z,11.40
2023-05-07T00:59:44.982Z,11.40
2023-05-07T01:02:13.393Z,11.30
2023-05-07T01:04:42.583Z,11.20
2023-05-07T01:07:11.482Z,11.20
2023-05-07T01:09:39.746Z,11.20
2023-05-07T01:12:09.350Z,11.10
2023-05-07T01:14:37.446Z,11.20
2023-05-07T01:17:05.569Z,11.10
2023-05-07T01:19:33.566Z,11.10
2023-05-07T01:22:04.285Z,11.10
2023-05-07T01:24:35.896Z,10.90
2023-05-07T01:27:03.959Z,10.80
2023-05-07T01:29:35.197Z,10.70
2023-05-07T01:32:03.546Z,10.80
2023-05-07T01:34:36.593Z,10.80
2023-05-07T01:37:04.927Z,10.80
2023-05-07T01:39:34.443Z,10.80
2023-05-07T01:42:05.273Z,10.80
2023-05-07T01:44:37.624Z,10.90
2023-05-07T01:47:07.054Z,10.60
2023-05-07T01:49:36.273Z,10.70
2023-05-07T01:52:04.379Z,10.70
2023-05-07T01:54:32.397Z,10.80
2023-05-07T01:57:01.967Z,10.80
2023-05-07T01:59:30.118Z,10.90
2023-05-07T02:01:58.171Z,10.70
2023-05-07T02:04:26.410Z,10.70
2023-05-07T02:06:54.652Z,10.80
2023-05-07T02:09:23.140Z,10.80
2023-05-07T02:11:51.102Z,10.80
2023-05-07T02:14:21.159Z,10.70
2023-05-07T02:16:49.229Z,10.70
2023-05-07T02:19:18.692Z,10.70
2023-05-07T02:21:48.705Z,10.60
2023-05-07T02:24:19.721Z,10.50
2023-05-07T02:26:48.995Z,10.40
2023-05-07T02:29:21.391Z,10.30
2023-05-07T02:31:51.737Z,10.40
2023-05-07T02:34:19.921Z,10.50
2023-05-07T02:36:47.919Z,10.60
2023-05-07T02:39:18.669Z,10.40
2023-05-07T02:41:46.636Z,10.40
2023-05-07T02:44:14.578Z,10.40
2023-05-07T02:46:43.905Z,10.50
2023-05-07T02:49:11.856Z,10.50
2023-05-07T02:51:39.898Z,10.30
2023-05-07T02:54:07.864Z,10.40
2023-05-07T02:56:36.052Z,10.50
2023-05-07T02:59:04.063Z,10.40
2023-05-07T03:01:36.890Z,10.40
2023-05-07T03:04:06.574Z,10.20
2023-05-07T03:06:34.654Z,10.20
2023-05-07T03:09:02.625Z,10.30
2023-05-07T03:11:32.359Z,10.30
2023-05-07T03:14:00.372Z,10.20
2023-05-07T03:16:28.383Z,10.20
2023-05-07T03:18:57.831Z,10.30
2023-05-07T03:21:27.819Z,10.30
2023-05-07T03:23:55.777Z,10.30
2023-05-07T03:26:26.376Z,10.30
2023-05-07T03:28:56.368Z,10.30
2023-05-07T03:31:24.414Z,10.20
2023-05-07T03:33:53.206Z,10.20
2023-05-07T03:36:21.746Z,10.20
2023-05-07T03:38:53.940Z,10.20
2023-05-07T03:41:22.367Z,10.20
2023-05-07T03:43:50.522Z,10.20
2023-05-07T03:46:18.602Z,10.20
2023-05-07T03:48:46.568Z,10.20
2023-05-07T03:51:14.543Z,10.20
2023-05-07T03:53:42.591Z,10.20
2023-05-07T03:56:11.914Z,10.30
2023-05-07T03:58:42.280Z,10.10
2023-05-07T04:01:12.034Z,10.40
2023-05-07T04:03:41.297Z,9.90
2023-05-07T04:06:09.437Z,10.00
2023-05-07T04:08:37.470Z,10.10
2023-05-07T04:11:05.481Z,10.00
2023-05-07T04:13:34.802Z,10.10
2023-05-07T04:16:04.177Z,10.00
2023-05-07T04:18:34.057Z,9.90
2023-05-07T04:21:02.067Z,9.90
2023-05-07T04:23:30.075Z,9.90
2023-05-07T04:25:58.368Z,10.00
2023-05-07T04:28:26.797Z,9.90
2023-05-07T04:30:57.926Z,10.00
2023-05-07T04:33:25.970Z,10.00
2023-05-07T04:35:55.576Z,10.00
2023-05-07T04:38:25.702Z,10.00
2023-05-07T04:40:54.081Z,9.90
2023-05-07T04:43:22.392Z,10.00
2023-05-07T04:45:51.591Z,10.00
2023-05-07T04:48:21.573Z,10.00
2023-05-07T04:50:51.430Z,10.00
2023-05-07T04:53:19.818Z,10.10
2023-05-07T04:55:47.755Z,10.10
2023-05-07T04:58:15.751Z,10.20
2023-05-07T05:00:46.480Z,10.20
2023-05-07T05:03:14.669Z,10.10
2023-05-07T05:05:46.686Z,10.10
2023-05-07T05:08:18.034Z,10.10
2023-05-07T05:10:45.983Z,10.20
2023-05-07T05:13:14.496Z,10.20
2023-05-07T05:15:43.897Z,10.20
2023-05-07T05:18:11.885Z,10.20
2023-05-07T05:20:39.951Z,10.20
2023-05-07T05:23:09.821Z,10.20
2023-05-07T05:25:38.377Z,10.30
2023-05-07T05:28:06.641Z,10.20
2023-05-07T05:30:34.775Z,10.20
2023-05-07T05:33:02.799Z,10.20
2023-05-07T05:35:36.373Z,10.30
2023-05-07T05:38:04.728Z,10.20
2023-05-07T05:40:34.358Z,10.10
2023-05-07T05:43:02.444Z,10.20
2023-05-07T05:45:39.245Z,10.20
2023-05-07T05:48:07.475Z,10.30
2023-05-07T05:50:36.717Z,10.20
2023-05-07T05:53:04.842Z,10.10
2023-05-07T05:55:34.427Z,10.20
2023-05-07T05:58:03.285Z,10.20
2023-05-07T06:00:31.263Z,10.10
2023-05-07T06:02:59.265Z,10.10
2023-05-07T06:05:27.398Z,10.20
2023-05-07T06:07:55.414Z,10.20
2023-05-07T06:10:23.369Z,10.20
2023-05-07T06:12:52.756Z,10.20
2023-05-07T06:15:20.776Z,10.20
2023-05-07T06:17:51.571Z,10.20
2023-05-07T06:20:19.642Z,10.20
2023-05-07T06:22:47.596Z,10.10
2023-05-07T06:25:15.572Z,10.10
2023-05-07T06:27:43.537Z,10.20
2023-05-07T06:30:13.517Z,10.20
2023-05-07T06:32:42.282Z,10.10
2023-05-07T06:35:10.798Z,10.10
2023-05-07T06:37:40.840Z,10.00
2023-05-07T06:40:09.593Z,10.00
2023-05-07T06:42:37.822Z,10.10
2023-05-07T06:45:06.388Z,10.20
2023-05-07T06:47:35.726Z,10.20
2023-05-07T06:50:03.858Z,10.20
2023-05-07T06:52:31.903Z,10.10
2023-05-07T06:54:59.866Z,9.50
2023-05-07T06:57:27.876Z,10.20
2023-05-07T06:59:55.858Z,10.20
2023-05-07T07:02:23.872Z,10.20
2023-05-07T07:04:53.388Z,10.30
2023-05-07T07:07:21.429Z,10.40
2023-05-07T07:09:49.431Z,10.30
2023-05-07T07:12:17.476Z,10.20
2023-05-07T07:14:45.453Z,10.30
2023-05-07T07:17:13.397Z,10.50
2023-05-07T07:19:41.423Z,12.00
2023-05-07T07:22:11.134Z,10.40
2023-05-07T07:24:39.137Z,10.40
2023-05-07T07:27:07.096Z,10.50
2023-05-07T07:29:35.050Z,10.50
2023-05-07T07:32:03.180Z,10.60
2023-05-07T07:34:31.166Z,10.50
2023-05-07T07:36:59.123Z,10.60
2023-05-07T07:39:28.506Z,10.70
2023-05-07T07:41:56.469Z,10.70
2023-05-07T07:44:24.513Z,10.80
2023-05-07T07:46:52.666Z,10.80
2023-05-07T07:49:23.273Z,10.80
2023-05-07T07:51:52.129Z,10.80
2023-05-07T07:54:20.080Z,10.90
2023-05-07T07:56:49.468Z,11.00
2023-05-07T07:59:20.925Z,11.00
2023-05-07T08:01:52.322Z,11.00
2023-05-07T08:04:22.082Z,11.00
2023-05-07T08:06:50.075Z,11.00
2023-05-07T08:09:18.125Z,11.10
2023-05-07T08:11:46.098Z,11.10
2023-05-07T08:14:16.713Z,11.00
2023-05-07T08:16:46.485Z,11.10
2023-05-07T08:19:14.441Z,11.10
2023-05-07T08:21:42.491Z,11.10
2023-05-07T08:24:10.884Z,11.10
2023-05-07T08:26:40.293Z,11.30
2023-05-07T08:29:08.304Z,11.00
2023-05-07T08:31:37.640Z,11.10
2023-05-07T08:34:06.725Z,11.10
2023-05-07T08:36:36.318Z,11.10
2023-05-07T08:39:04.632Z,11.20
2023-05-07T08:41:32.742Z,11.30
2023-05-07T08:44:07.719Z,11.40
2023-05-07T08:46:37.310Z,11.50
2023-05-07T08:49:05.512Z,11.50
2023-05-07T08:51:33.564Z,11.50
2023-05-07T08:54:01.506Z,11.50
2023-05-07T08:56:29.690Z,11.60
2023-05-07T08:58:59.859Z,11.70
2023-05-07T09:01:28.287Z,11.60
2023-05-07T09:03:59.088Z,11.60
2023-05-07T09:06:27.599Z,11.60
2023-05-07T09:08:56.182Z,11.70
2023-05-07T09:11:24.697Z,11.70
2023-05-07T09:13:55.617Z,11.70
2023-05-07T09:16:24.199Z,11.90
2023-05-07T09:18:54.614Z,12.10
2023-05-07T09:21:26.026Z,12.00
2023-05-07T09:23:54.834Z,12.00
2023-05-07T09:26:23.322Z,12.00
2023-05-07T09:28:53.062Z,12.20
2023-05-07T09:31:21.733Z,12.20
2023-05-07T09:33:49.865Z,12.30
2023-05-07T09:36:18.108Z,12.40
2023-05-07T09:38:47.748Z,12.40
2023-05-07T09:41:17.214Z,12.60
2023-05-07T09:43:45.274Z,12.70
2023-05-07T09:46:15.961Z,12.90
2023-05-07T09:48:44.777Z,12.90
2023-05-07T09:51:19.269Z,13.00
2023-05-07T09:53:50.398Z,12.90
2023-05-07T09:56:18.699Z,12.90
2023-05-07T09:58:47.324Z,13.10
2023-05-07T10:01:15.571Z,13.20
2023-05-07T10:03:44.333Z,12.00
2023-05-07T10:06:14.710Z,13.40
2023-05-07T10:08:45.191Z,13.30
2023-05-07T10:11:15.941Z,13.30
2023-05-07T10:13:44.786Z,13.40
2023-05-07T10:16:18.617Z,13.50
2023-05-07T10:18:47.570Z,13.80
2023-05-07T10:21:18.201Z,13.90
2023-05-07T10:23:47.155Z,14.00
2023-05-07T10:26:21.270Z,13.90
2023-05-07T10:28:55.397Z,14.10
2023-05-07T10:31:31.408Z,14.10
2023-05-07T10:34:04.539Z,14.30
2023-05-07T10:36:32.720Z,14.40
2023-05-07T10:39:01.416Z,14.50
2023-05-07T10:41:30.816Z,14.60
2023-05-07T10:44:02.231Z,14.70
2023-05-07T10:46:30.395Z,14.60
2023-05-07T10:49:13.778Z,14.60
2023-05-07T10:51:42.130Z,14.80
2023-05-07T10:54:28.249Z,14.90
2023-05-07T10:56:57.608Z,14.80
2023-05-07T10:59:42.875Z,14.90
2023-05-07T11:02:15.037Z,15.00
2023-05-07T11:04:43.185Z,15.10
2023-05-07T11:07:26.375Z,15.20
2023-05-07T11:09:59.371Z,15.30
2023-05-07T11:12:46.544Z,15.50
2023-05-07T11:15:16.711Z,15.60
2023-05-07T11:17:54.946Z,15.50
2023-05-07T11:20:23.216Z,15.80
2023-05-07T11:22:51.191Z,15.80
2023-05-07T11:25:20.059Z,16.00
2023-05-07T11:27:48.168Z,16.10
2023-05-07T11:30:20.526Z,16.20
2023-05-07T11:32:50.170Z,16.00
2023-05-07T11:35:18.594Z,15.90
2023-05-07T11:37:47.765Z,15.90
2023-05-07T11:40:18.124Z,16.10
2023-05-07T11:42:46.066Z,16.30
2023-05-07T11:45:14.228Z,16.30
2023-05-07T11:47:44.781Z,16.30
2023-05-07T11:50:17.793Z,16.30
2023-05-07T11:52:54.105Z,16.40
2023-05-07T11:55:23.575Z,16.20
2023-05-07T11:57:51.576Z,16.00
2023-05-07T12:00:22.152Z,16.10
2023-05-07T12:02:53.629Z,16.10
2023-05-07T12:05:21.775Z,16.30
2023-05-07T12:07:57.614Z,16.40
2023-05-07T12:10:25.908Z,16.40
2023-05-07T12:12:53.894Z,16.20
2023-05-07T12:15:24.600Z,15.90
2023-05-07T12:17:54.115Z,16.10
2023-05-07T12:20:25.385Z,16.20
2023-05-07T12:22:53.756Z,16.40
2023-05-07T12:25:21.879Z,16.60
2023-05-07T12:27:53.530Z,16.60
2023-05-07T12:30:23.432Z,16.70
2023-05-07T12:32:56.414Z,16.50
2023-05-07T12:35:30.113Z,16.60
2023-05-07T12:38:00.136Z,16.30
2023-05-07T12:40:37.330Z,15.80
2023-05-07T12:43:05.481Z,15.50
2023-05-07T12:45:33.547Z,15.60
2023-05-07T12:48:04.978Z,15.70
2023-05-07T12:50:42.895Z,15.70
2023-05-07T12:53:12.218Z,15.70
2023-05-07T12:55:44.275Z,15.60
2023-05-07T12:58:16.926Z,15.60
2023-05-07T13:00:49.627Z,15.90
2023-05-07T13:03:25.578Z,16.10
2023-05-07T13:05:53.760Z,16.00
2023-05-07T13:08:25.594Z,16.40
2023-05-07T13:10:53.556Z,16.50
2023-05-07T13:13:21.788Z,16.60
2023-05-07T13:15:50.183Z,16.50
2023-05-07T13:18:18.283Z,16.80
2023-05-07T13:20:47.699Z,16.90
2023-05-07T13:23:22.028Z,17.10
2023-05-07T13:25:50.362Z,17.20
2023-05-07T13:28:18.564Z,17.30
2023-05-07T13:30:46.554Z,17.50
2023-05-07T13:33:17.007Z,17.80
2023-05-07T13:35:44.971Z,18.10
2023-05-07T13:38:14.338Z,18.00
2023-05-07T13:40:42.291Z,18.10
2023-05-07T13:43:10.263Z,18.30
2023-05-07T13:45:38.330Z,18.30
2023-05-07T13:48:06.590Z,18.40
2023-05-07T13:50:35.849Z,18.80
2023-05-07T13:53:04.085Z,19.00
2023-05-07T13:55:36.083Z,19.40
2023-05-07T13:58:07.620Z,19.90
2023-05-07T14:00:36.934Z,20.30
2023-05-07T14:03:06.338Z,20.40
2023-05-07T14:05:36.317Z,21.00
2023-05-07T14:08:05.523Z,21.20
2023-05-07T14:10:37.033Z,21.50
2023-05-07T14:13:05.387Z,22.60
2023-05-07T14:15:35.784Z,24.50
2023-05-07T14:18:03.978Z,25.20
2023-05-07T14:20:32.142Z,25.60
2023-05-07T14:23:00.202Z,25.70
2023-05-07T14:25:28.194Z,25.80
2023-05-07T14:27:57.733Z,26.40
2023-05-07T14:30:25.908Z,26.20
2023-05-07T14:32:56.923Z,26.20
2023-05-07T14:35:26.933Z,26.70
2023-05-07T14:37:56.769Z,26.30
2023-05-07T14:40:24.825Z,26.60
2023-05-07T14:42:54.522Z,27.20
2023-05-07T14:45:24.201Z,27.30
2023-05-07T14:47:52.247Z,26.90
2023-05-07T14:50:20.328Z,26.90
2023-05-07T14:52:51.313Z,27.00
2023-05-07T14:55:29.448Z,27.10
2023-05-07T14:57:58.899Z,26.40
2023-05-07T15:00:34.537Z,26.60
2023-05-07T15:03:07.138Z,27.20
2023-05-07T15:05:35.378Z,27.30
2023-05-07T15:08:03.381Z,27.80
2023-05-07T15:10:31.374Z,29.20
2023-05-07T15:12:59.481Z,29.40
2023-05-07T15:15:27.884Z,30.10
2023-05-07T15:17:57.934Z,31.40
2023-05-07T15:20:26.095Z,31.60
2023-05-07T15:22:54.203Z,30.60
2023-05-07T15:25:22.347Z,30.60
2023-05-07T15:27:50.361Z,28.80
2023-05-07T15:30:18.507Z,28.30
2023-05-07T15:32:46.507Z,27.10
2023-05-07T15:35:15.890Z,28.40
2023-05-07T15:37:45.782Z,29.60
2023-05-07T15:40:14.418Z,30.60
2023-05-07T15:42:42.388Z,31.10
2023-05-07T15:45:11.906Z,30.40
2023-05-07T15:47:40.109Z,29.30
2023-05-07T15:50:08.602Z,29.10
2023-05-07T15:52:39.034Z,28.30
2023-05-07T15:55:07.684Z,27.00
2023-05-07T15:57:35.688Z,26.50
2023-05-07T16:00:09.112Z,26.40
2023-05-07T16:02:37.794Z,26.00
2023-05-07T16:05:08.632Z,25.70
2023-05-07T16:07:38.080Z,25.30
2023-05-07T16:10:06.663Z,24.90
2023-05-07T16:12:34.804Z,24.40
2023-05-07T16:15:02.831Z,24.20
2023-05-07T16:17:32.930Z,24.20
2023-05-07T16:20:02.573Z,23.10
2023-05-07T16:22:31.824Z,23.00
2023-05-07T16:25:01.742Z,23.60
2023-05-07T16:27:30.077Z,23.90
2023-05-07T16:29:58.323Z,24.10
2023-05-07T16:32:28.430Z,23.50
2023-05-07T16:34:56.382Z,22.80
2023-05-07T16:37:24.701Z,23.20
2023-05-07T16:39:52.839Z,23.40
2023-05-07T16:42:22.245Z,23.30
2023-05-07T16:44:50.297Z,23.10
2023-05-07T16:47:18.353Z,23.10
2023-05-07T16:49:46.641Z,23.10
2023-05-07T16:52:14.853Z,23.00
2023-05-07T16:54:42.991Z,22.70
2023-05-07T16:57:11.088Z,22.50
2023-05-07T16:59:40.442Z,21.50
2023-05-07T17:02:08.498Z,21.20
2023-05-07T17:04:36.550Z,21.30
2023-05-07T17:07:04.572Z,20.80
2023-05-07T17:09:32.571Z,20.80
2023-05-07T17:12:00.542Z,21.30
2023-05-07T17:14:28.580Z,21.40
2023-05-07T17:16:57.962Z,21.30
2023-05-07T17:19:25.956Z,21.40
2023-05-07T17:21:55.603Z,21.10
2023-05-07T17:24:23.823Z,21.30
2023-05-07T17:26:51.791Z,20.90
2023-05-07T17:29:20.116Z,21.10
2023-05-07T17:31:48.263Z,21.10
2023-05-07T17:34:18.040Z,21.10
2023-05-07T17:36:46.119Z,21.00
2023-05-07T17:39:14.146Z,21.00
2023-05-07T17:41:42.116Z,20.70
2023-05-07T17:44:10.152Z,20.70
2023-05-07T17:46:38.341Z,20.50
2023-05-07T17:49:06.384Z,20.50
2023-05-07T17:51:49.668Z,20.40
2023-05-07T17:54:21.584Z,19.90
2023-05-07T17:56:49.633Z,19.90
2023-05-07T17:59:17.714Z,20.00
2023-05-07T18:01:45.840Z,19.90
2023-05-07T18:04:13.924Z,19.70
2023-05-07T18:06:43.497Z,19.50
2023-05-07T18:09:11.620Z,19.20
2023-05-07T18:11:42.120Z,19.10
2023-05-07T18:14:10.076Z,18.80
2023-05-07T18:16:38.196Z,18.60
2023-05-07T18:19:06.247Z,18.40
2023-05-07T18:21:34.252Z,18.00
2023-05-07T18:24:03.628Z,17.50
2023-05-07T18:26:31.673Z,17.20
2023-05-07T18:28:59.762Z,17.10
2023-05-07T18:31:27.774Z,17.30
2023-05-07T18:33:55.997Z,17.20
2023-05-07T18:36:24.970Z,17.40
2023-05-07T18:38:53.657Z,17.50
2023-05-07T18:41:23.681Z,17.50
2023-05-07T18:43:51.725Z,17.30
2023-05-07T18:46:19.752Z,17.10
2023-05-07T18:48:47.757Z,17.00
2023-05-07T18:51:15.726Z,17.10
2023-05-07T18:53:43.738Z,17.10
2023-05-07T18:56:11.902Z,16.90
2023-05-07T18:58:45.857Z,17.00
2023-05-07T19:01:13.844Z,16.80
2023-05-07T19:03:41.842Z,16.70
2023-05-07T19:06:09.824Z,16.60
2023-05-07T19:08:37.783Z,16.30
2023-05-07T19:11:05.824Z,16.30
2023-05-07T19:13:34.333Z,16.30
2023-05-07T19:16:04.466Z,16.30
2023-05-07T19:18:32.970Z,16.30
2023-05-07T19:21:01.518Z,16.30
2023-05-07T19:23:29.765Z,16.30
2023-05-07T19:25:57.775Z,16.20
2023-05-07T19:28:26.356Z,16.20
2023-05-07T19:30:54.344Z,16.10
2023-05-07T19:33:24.111Z,16.10
2023-05-07T19:35:53.990Z,16.00
2023-05-07T19:38:21.977Z,16.00
2023-05-07T19:40:49.948Z,15.90
2023-05-07T19:43:17.899Z,15.80
2023-05-07T19:45:45.917Z,15.80
2023-05-07T19:48:14.553Z,15.50
2023-05-07T19:50:44.254Z,15.40
2023-05-07T19:53:12.392Z,15.40
2023-05-07T19:55:43.114Z,15.50
2023-05-07T19:58:11.416Z,15.50
2023-05-07T20:00:40.921Z,15.40
2023-05-07T20:03:14.607Z,15.40
2023-05-07T20:05:43.978Z,15.30
2023-05-07T20:08:12.036Z,15.30
2023-05-07T20:10:40.046Z,15.10
2023-05-07T20:13:08.089Z,15.10
2023-05-07T20:15:37.411Z,15.00
2023-05-07T20:18:05.687Z,15.00
2023-05-07T20:20:33.969Z,14.80
2023-05-07T20:23:03.510Z,14.70
2023-05-07T20:25:31.562Z,14.40
2023-05-07T20:27:59.625Z,14.50
2023-05-07T20:30:28.224Z,14.60
2023-05-07T20:32:56.277Z,14.60
2023-05-07T20:35:24.588Z,14.40
2023-05-07T20:37:52.632Z,14.50
2023-05-07T20:40:22.190Z,14.30
2023-05-07T20:42:51.018Z,14.40
2023-05-07T20:45:19.096Z,14.20
2023-05-07T20:47:47.125Z,14.20
2023-05-07T20:50:15.421Z,14.00
2023-05-07T20:52:43.460Z,14.10
2023-05-07T20:55:11.447Z,13.90
2023-05-07T20:57:40.819Z,13.90
2023-05-07T21:00:09.476Z,13.90
2023-05-07T21:02:37.501Z,13.70
2023-05-07T21:05:06.198Z,13.80
2023-05-07T21:07:34.182Z,13.80
2023-05-07T21:10:02.205Z,13.70
2023-05-07T21:12:30.289Z,13.70
2023-05-07T21:14:59.592Z,13.50
2023-05-07T21:17:29.025Z,13.60
2023-05-07T21:19:57.122Z,13.70
2023-05-07T21:22:25.112Z,13.60
2023-05-07T21:24:54.759Z,13.60
2023-05-07T21:27:22.940Z,13.60
2023-05-07T21:29:51.438Z,13.50
2023-05-07T21:32:20.930Z,13.60
2023-05-07T21:34:49.149Z,13.60
2023-05-07T21:37:17.111Z,13.60
2023-05-07T21:39:45.117Z,13.60
2023-05-07T21:42:13.240Z,13.50
2023-05-07T21:44:41.228Z,13.50
2023-05-07T21:47:09.188Z,13.40
2023-05-07T21:49:41.088Z,13.40
2023-05-07T21:52:12.092Z,13.40
2023-05-07T21:54:40.116Z,13.30
2023-05-07T21:57:08.324Z,13.40
2023-05-07T21:59:37.402Z,13.40
2023-05-07T22:02:05.797Z,13.30
2023-05-07T22:04:33.916Z,13.30
2023-05-07T22:07:04.852Z,13.30
2023-05-07T22:09:32.844Z,13.30
2023-05-07T22:12:00.888Z,13.20
2023-05-07T22:14:29.056Z,13.10
2023-05-07T22:16:57.202Z,13.10
2023-05-07T22:19:25.310Z,13.00
2023-05-07T22:21:53.384Z,13.10
2023-05-07T22:24:22.862Z,13.00
2023-05-07T22:26:50.852Z,13.00
2023-05-07T22:29:18.869Z,13.00
2023-05-07T22:31:46.929Z,12.80
2023-05-07T22:34:15.071Z,12.90
2023-05-07T22:36:43.317Z,12.80
2023-05-07T22:39:11.762Z,12.90
2023-05-07T22:41:41.101Z,12.90
2023-05-07T22:44:09.035Z,12.90
2023-05-07T22:46:37.030Z,12.90
2023-05-07T22:49:04.985Z,12.90
2023-05-07T22:51:32.954Z,12.80
2023-05-07T22:54:00.922Z,12.80
2023-05-07T22:56:28.869Z,12.60
2023-05-07T22:58:58.187Z,12.60
2023-05-07T23:01:26.547Z,12.60
2023-05-07T23:03:54.594Z,12.60
2023-05-07T23:06:22.570Z,12.60
2023-05-07T23:08:50.503Z,12.60
2023-05-07T23:11:18.495Z,12.50
2023-05-07T23:13:46.452Z,12.50
2023-05-07T23:16:15.795Z,12.50
2023-05-07T23:18:43.834Z,12.50
2023-05-07T23:21:13.985Z,12.50
2023-05-07T23:23:41.996Z,12.40
2023-05-07T23:26:09.951Z,12.40
2023-05-07T23:28:37.907Z,12.40
2023-05-07T23:31:07.565Z,12.30
2023-05-07T23:33:37.031Z,12.30
2023-05-07T23:36:06.006Z,12.30
2023-05-07T23:38:33.978Z,12.30
2023-05-07T23:41:01.966Z,12.30
2023-05-07T23:43:30.069Z,12.20
2023-05-07T23:45:58.258Z,12.20
2023-05-07T23:48:26.214Z,12.20
2023-05-07T23:50:55.683Z,12.20
2023-05-07T23:53:23.995Z,12.20
2023-05-07T23:55:52.086Z,12.10
2023-05-07T23:58:20.055Z,12.10
